Fram — LADA7 — position and weather

sailwx.info

Track history (hours):
 
Tides and Currents Weather Stations Pressure Air Temp Water Temp Dewpoint Dewpoint Depression Visibility Wind Speed Wind Dir Waves Ship Positions

Fram

Last reported at 2017-Apr-21 06:27 UTC. Time now 2017-Apr-26 11:54 UTC.
Position N 53°30' E 008°35'.

Length 114 m; draft 5.1 m.

Type: Ship. MMSI: 258932000.

Date/timePositionNaut miles runAvg speedWind from/ knotsBaromVisibWave heightAir tempDewpointWater temp
2017-Apr-21 06:27N 53°30' E 008°35'0 0.0
2017-Apr-21 05:57N 53°30' E 008°35'0 0.0
2017-Apr-21 05:27N 53°30' E 008°35'0 0.0
2017-Apr-21 04:57N 53°30' E 008°35'0 0.0
2017-Apr-21 04:27N 53°30' E 008°35'0 0.0
2017-Apr-21 03:57N 53°30' E 008°35'0 0.0
2017-Apr-21 03:27N 53°30' E 008°35'0 0.0
2017-Apr-21 02:51N 53°30' E 008°35'0 0.0
2017-Apr-21 02:27N 53°30' E 008°35'0 0.0
2017-Apr-21 01:57N 53°30' E 008°35'0 0.0
2017-Apr-21 01:27N 53°30' E 008°35'0 0.0
2017-Apr-21 00:57N 53°30' E 008°35'0 0.0
2017-Apr-21 00:27N 53°30' E 008°35'0 0.0
2017-Apr-20 23:57N 53°30' E 008°35'0 0.0
2017-Apr-20 23:27N 53°30' E 008°35'0 0.0
2017-Apr-20 22:57N 53°30' E 008°35'0 0.0
2017-Apr-20 22:27N 53°30' E 008°35'0 0.0
2017-Apr-20 21:57N 53°30' E 008°35'0 0.0
2017-Apr-20 21:27N 53°30' E 008°35'0 0.0
2017-Apr-20 20:57N 53°30' E 008°35'0 0.0
2017-Apr-20 20:27N 53°30' E 008°35'0 0.0
2017-Apr-20 19:51N 53°30' E 008°35'0 0.0
2017-Apr-20 19:15N 53°30' E 008°35'0 0.0
2017-Apr-20 18:57N 53°30' E 008°35'0 0.0
2017-Apr-20 18:27N 53°30' E 008°35'0 0.0
2017-Apr-20 17:57N 53°30' E 008°35'0 0.0
2017-Apr-20 17:27N 53°30' E 008°35'0 0.0
2017-Apr-20 16:51N 53°30' E 008°35'0 0.0
2017-Apr-20 16:27N 53°30' E 008°35'0 0.0
2017-Apr-20 16:00N 53°30' E 008°35'0 0.0
2017-Apr-20 15:30N 53°30' E 008°35'0 0.0
2017-Apr-20 15:00N 53°30' E 008°35'2 1.6
2017-Apr-20 14:00N 53°32' E 008°35'2 3.1
2017-Apr-20 13:30N 53°33' E 008°33'612.7
2017-Apr-20 13:00N 53°38' E 008°26'713.4
2017-Apr-20 12:30N 53°43' E 008°18'713.7
2017-Apr-20 12:00N 53°47' E 008°09'10211.0
2017-Apr-20 02:43N 53°32' E 005°19'211.1
2017-Apr-20 02:30N 53°31' E 005°15'2710.5
2017-Apr-19 23:52N 53°15' E 004°37'410.8
2017-Apr-19 23:30N 53°12' E 004°33'511.1
2017-Apr-19 23:00N 53°07' E 004°29'611.1
2017-Apr-19 22:30N 53°02' E 004°24'611.1
2017-Apr-19 21:58N 52°57' E 004°19'511.1
2017-Apr-19 21:30N 52°53' E 004°16'611.0
2017-Apr-19 21:00N 52°48' E 004°10'711.1
2017-Apr-19 20:20N 52°43' E 004°02'411.1
2017-Apr-19 19:57N 52°40' E 003°57'8111.2
2017-Apr-19 12:41N 51°39' E 002°29'211.0
2017-Apr-19 12:30N 51°38' E 002°27'511.2
2017-Apr-19 12:00N 51°33' E 002°21'611.0
2017-Apr-19 11:30N 51°29' E 002°16'611.0
2017-Apr-19 11:00N 51°24' E 002°11'611.1
2017-Apr-19 10:30N 51°19' E 002°08'611.0
2017-Apr-19 10:01N 51°14' E 002°04'611.0
2017-Apr-19 09:30N 51°11' E 001°57'611.1
2017-Apr-19 09:00N 51°08' E 001°49'611.1
2017-Apr-19 08:30N 51°04' E 001°43'511.1
2017-Apr-19 08:00N 50°60' E 001°37'511.0
2017-Apr-19 07:30N 50°56' E 001°31'510.8
2017-Apr-19 07:00N 50°51' E 001°27'712.5
2017-Apr-19 06:27N 50°44' E 001°24'3911.7
2017-Apr-19 03:09N 50°25' E 000°31'411.6
2017-Apr-19 02:50N 50°24' E 000°25'412.1
2017-Apr-19 02:29N 50°23' E 000°19'612.7
2017-Apr-19 02:00N 50°21' E 000°10'612.9
2017-Apr-19 01:30N 50°19' E 000°00'713.1
2017-Apr-19 01:00N 50°18' W 000°10'713.0
2017-Apr-19 00:30N 50°16' W 000°19'9712.5
2017-Apr-18 16:41N 49°50' W 002°46'211.5
2017-Apr-18 16:30N 49°49' W 002°49'9712.1
2017-Apr-18 08:26N 49°02' W 004°59'914.0
2017-Apr-18 07:48N 48°57' W 005°11'915.1
2017-Apr-18 07:13N 48°53' W 005°23'315.1
2017-Apr-18 06:59N 48°51' W 005°27'914.9
2017-Apr-18 06:25N 48°47' W 005°38'55214.3
2017-Apr-16 15:45N 40°05' W 009°50'1115.1
2017-Apr-16 15:01N 39°54' W 009°51'015.0
2017-Apr-16 15:00N 39°54' W 009°51'2215.1
2017-Apr-16 13:31N 39°32' W 009°51'014.9
2017-Apr-16 13:30N 39°31' W 009°51'714.9
2017-Apr-16 13:00N 39°24' W 009°51'714.9
2017-Apr-16 12:30N 39°16' W 009°51'714.8
2017-Apr-16 12:00N 39°09' W 009°52'714.7
2017-Apr-16 11:31N 39°02' W 009°52'815.1
2017-Apr-16 11:00N 38°54' W 009°52'815.0
2017-Apr-16 10:30N 38°47' W 009°52'714.8
2017-Apr-16 10:00N 38°39' W 009°51'815.2
2017-Apr-16 09:30N 38°32' W 009°49'715.1
2017-Apr-16 09:00N 38°25' W 009°46'815.3
2017-Apr-16 08:31N 38°17' W 009°44'815.5
2017-Apr-16 08:00N 38°10' W 009°42'815.4
2017-Apr-16 07:30N 38°02' W 009°40'815.3
2017-Apr-16 07:00N 37°55' W 009°37'815.4
2017-Apr-16 06:30N 37°47' W 009°35'915.6
2017-Apr-16 05:56N 37°39' W 009°33'1015.7
2017-Apr-16 05:20N 37°29' W 009°30'815.3
2017-Apr-16 04:49N 37°22' W 009°28'615.3
2017-Apr-16 04:28N 37°16' W 009°26'715.4
2017-Apr-16 04:00N 37°09' W 009°24'715.4
2017-Apr-16 03:30N 37°02' W 009°22'815.2
2017-Apr-16 03:00N 36°55' W 009°19'714.9
2017-Apr-16 02:30N 36°49' W 009°14'714.9
2017-Apr-16 02:00N 36°44' W 009°07'914.9
2017-Apr-16 01:23N 36°39' W 008°58'615.5
2017-Apr-16 01:00N 36°33' W 008°54'1815.5
2017-Apr-15 23:51N 36°17' W 008°45'515.2
2017-Apr-15 23:30N 36°12' W 008°43'4114.9
2017-Apr-15 20:46N 35°34' W 008°26'414.7
2017-Apr-15 20:30N 35°30' W 008°24'815.1
2017-Apr-15 20:00N 35°23' W 008°21'915.3
2017-Apr-15 19:26N 35°15' W 008°17'815.2
2017-Apr-15 18:54N 35°07' W 008°13'1515.2
2017-Apr-15 17:55N 34°53' W 008°07'1115.3
2017-Apr-15 17:14N 34°43' W 008°02'315.2
2017-Apr-15 17:00N 34°40' W 008°01'815.0
2017-Apr-15 16:30N 34°33' W 007°58'53 5.9
2017-Apr-15 07:32N 33°44' W 007°37'010.9
2017-Apr-15 07:29N 33°44' W 007°37'10511.9
2017-Apr-14 22:40N 32°40' W 009°16'212.0
2017-Apr-14 22:29N 32°38' W 009°18'611.8
2017-Apr-14 22:00N 32°34' W 009°22'711.5
2017-Apr-14 21:26N 32°29' W 009°27'511.6
2017-Apr-14 21:00N 32°25' W 009°31'611.5
2017-Apr-14 20:30N 32°20' W 009°35'611.5
2017-Apr-14 20:00N 32°15' W 009°39'611.4
2017-Apr-14 19:30N 32°11' W 009°43'611.5
2017-Apr-14 18:59N 32°06' W 009°47'3311.5
2017-Apr-14 16:06N 31°39' W 010°10'111.6
2017-Apr-14 15:59N 31°38' W 010°11'1011.8
2017-Apr-14 15:10N 31°30' W 010°17'17811.9
2017-Apr-14 00:10N 29°06' W 012°18'312.8
2017-Apr-13 23:58N 29°04' W 012°20'712.8
2017-Apr-13 23:27N 28°59' W 012°24'4512.4
2017-Apr-13 19:48N 28°22' W 012°55'412.3
2017-Apr-13 19:30N 28°19' W 012°57'612.2
2017-Apr-13 18:59N 28°14' W 013°01'612.2
2017-Apr-13 18:29N 28°09' W 013°05'612.3
2017-Apr-13 17:59N 28°04' W 013°10'612.1
2017-Apr-13 17:28N 27°59' W 013°14'612.2
2017-Apr-13 17:00N 27°54' W 013°17'712.2
2017-Apr-13 16:26N 27°49' W 013°22'712.2
2017-Apr-13 15:53N 27°43' W 013°26'512.4
2017-Apr-13 15:29N 27°39' W 013°30'6813.1
2017-Apr-13 10:18N 26°44' W 014°15'414.0
2017-Apr-13 10:00N 26°41' W 014°17'4513.5
2017-Apr-13 06:41N 26°05' W 014°47'  
Track history (hours):
 
Tides and Currents Weather Stations Pressure Air Temp Water Temp Dewpoint Dewpoint Depression Visibility Wind Speed Wind Dir Waves Ship Positions

Fram

Last reported at 2017-Apr-21 06:27 UTC. Time now 2017-Apr-26 11:54 UTC.
Position N 53°30' E 008°35'.

Length 114 m; draft 5.1 m.

Type: Ship. MMSI: 258932000.

Date/timePositionNaut miles runAvg speedWind from/ knotsBaromVisibWave heightAir tempDewpointWater temp
2017-Apr-21 06:27N 53°30' E 008°35'0 0.0
2017-Apr-21 05:57N 53°30' E 008°35'0 0.0
2017-Apr-21 05:27N 53°30' E 008°35'0 0.0
2017-Apr-21 04:57N 53°30' E 008°35'0 0.0
2017-Apr-21 04:27N 53°30' E 008°35'0 0.0
2017-Apr-21 03:57N 53°30' E 008°35'0 0.0
2017-Apr-21 03:27N 53°30' E 008°35'0 0.0
2017-Apr-21 02:51N 53°30' E 008°35'0 0.0
2017-Apr-21 02:27N 53°30' E 008°35'0 0.0
2017-Apr-21 01:57N 53°30' E 008°35'0 0.0
2017-Apr-21 01:27N 53°30' E 008°35'0 0.0
2017-Apr-21 00:57N 53°30' E 008°35'0 0.0
2017-Apr-21 00:27N 53°30' E 008°35'0 0.0
2017-Apr-20 23:57N 53°30' E 008°35'0 0.0
2017-Apr-20 23:27N 53°30' E 008°35'0 0.0
2017-Apr-20 22:57N 53°30' E 008°35'0 0.0
2017-Apr-20 22:27N 53°30' E 008°35'0 0.0
2017-Apr-20 21:57N 53°30' E 008°35'0 0.0
2017-Apr-20 21:27N 53°30' E 008°35'0 0.0
2017-Apr-20 20:57N 53°30' E 008°35'0 0.0
2017-Apr-20 20:27N 53°30' E 008°35'0 0.0
2017-Apr-20 19:51N 53°30' E 008°35'0 0.0
2017-Apr-20 19:15N 53°30' E 008°35'0 0.0
2017-Apr-20 18:57N 53°30' E 008°35'0 0.0
2017-Apr-20 18:27N 53°30' E 008°35'0 0.0
2017-Apr-20 17:57N 53°30' E 008°35'0 0.0
2017-Apr-20 17:27N 53°30' E 008°35'0 0.0
2017-Apr-20 16:51N 53°30' E 008°35'0 0.0
2017-Apr-20 16:27N 53°30' E 008°35'0 0.0
2017-Apr-20 16:00N 53°30' E 008°35'0 0.0
2017-Apr-20 15:30N 53°30' E 008°35'0 0.0
2017-Apr-20 15:00N 53°30' E 008°35'2 1.6
2017-Apr-20 14:00N 53°32' E 008°35'2 3.1
2017-Apr-20 13:30N 53°33' E 008°33'612.7
2017-Apr-20 13:00N 53°38' E 008°26'713.4
2017-Apr-20 12:30N 53°43' E 008°18'713.7
2017-Apr-20 12:00N 53°47' E 008°09'10211.0
2017-Apr-20 02:43N 53°32' E 005°19'211.1
2017-Apr-20 02:30N 53°31' E 005°15'2710.5
2017-Apr-19 23:52N 53°15' E 004°37'410.8
2017-Apr-19 23:30N 53°12' E 004°33'511.1
2017-Apr-19 23:00N 53°07' E 004°29'611.1
2017-Apr-19 22:30N 53°02' E 004°24'611.1
2017-Apr-19 21:58N 52°57' E 004°19'511.1
2017-Apr-19 21:30N 52°53' E 004°16'611.0
2017-Apr-19 21:00N 52°48' E 004°10'711.1
2017-Apr-19 20:20N 52°43' E 004°02'411.1
2017-Apr-19 19:57N 52°40' E 003°57'8111.2
2017-Apr-19 12:41N 51°39' E 002°29'211.0
2017-Apr-19 12:30N 51°38' E 002°27'511.2
2017-Apr-19 12:00N 51°33' E 002°21'611.0
2017-Apr-19 11:30N 51°29' E 002°16'611.0
2017-Apr-19 11:00N 51°24' E 002°11'611.1
2017-Apr-19 10:30N 51°19' E 002°08'611.0
2017-Apr-19 10:01N 51°14' E 002°04'611.0
2017-Apr-19 09:30N 51°11' E 001°57'611.1
2017-Apr-19 09:00N 51°08' E 001°49'611.1
2017-Apr-19 08:30N 51°04' E 001°43'511.1
2017-Apr-19 08:00N 50°60' E 001°37'511.0
2017-Apr-19 07:30N 50°56' E 001°31'510.8
2017-Apr-19 07:00N 50°51' E 001°27'712.5
2017-Apr-19 06:27N 50°44' E 001°24'3911.7
2017-Apr-19 03:09N 50°25' E 000°31'411.6
2017-Apr-19 02:50N 50°24' E 000°25'412.1
2017-Apr-19 02:29N 50°23' E 000°19'612.7
2017-Apr-19 02:00N 50°21' E 000°10'612.9
2017-Apr-19 01:30N 50°19' E 000°00'713.1
2017-Apr-19 01:00N 50°18' W 000°10'713.0
2017-Apr-19 00:30N 50°16' W 000°19'9712.5
2017-Apr-18 16:41N 49°50' W 002°46'211.5
2017-Apr-18 16:30N 49°49' W 002°49'9712.1
2017-Apr-18 08:26N 49°02' W 004°59'914.0
2017-Apr-18 07:48N 48°57' W 005°11'915.1
2017-Apr-18 07:13N 48°53' W 005°23'315.1
2017-Apr-18 06:59N 48°51' W 005°27'914.9
2017-Apr-18 06:25N 48°47' W 005°38'55214.3
2017-Apr-16 15:45N 40°05' W 009°50'1115.1
2017-Apr-16 15:01N 39°54' W 009°51'015.0
2017-Apr-16 15:00N 39°54' W 009°51'2215.1
2017-Apr-16 13:31N 39°32' W 009°51'014.9
2017-Apr-16 13:30N 39°31' W 009°51'714.9
2017-Apr-16 13:00N 39°24' W 009°51'714.9
2017-Apr-16 12:30N 39°16' W 009°51'714.8
2017-Apr-16 12:00N 39°09' W 009°52'714.7
2017-Apr-16 11:31N 39°02' W 009°52'815.1
2017-Apr-16 11:00N 38°54' W 009°52'815.0
2017-Apr-16 10:30N 38°47' W 009°52'714.8
2017-Apr-16 10:00N 38°39' W 009°51'815.2
2017-Apr-16 09:30N 38°32' W 009°49'715.1
2017-Apr-16 09:00N 38°25' W 009°46'815.3
2017-Apr-16 08:31N 38°17' W 009°44'815.5
2017-Apr-16 08:00N 38°10' W 009°42'815.4
2017-Apr-16 07:30N 38°02' W 009°40'815.3
2017-Apr-16 07:00N 37°55' W 009°37'815.4
2017-Apr-16 06:30N 37°47' W 009°35'915.6
2017-Apr-16 05:56N 37°39' W 009°33'1015.7
2017-Apr-16 05:20N 37°29' W 009°30'815.3
2017-Apr-16 04:49N 37°22' W 009°28'615.3
2017-Apr-16 04:28N 37°16' W 009°26'715.4
2017-Apr-16 04:00N 37°09' W 009°24'715.4
2017-Apr-16 03:30N 37°02' W 009°22'815.2
2017-Apr-16 03:00N 36°55' W 009°19'714.9
2017-Apr-16 02:30N 36°49' W 009°14'714.9
2017-Apr-16 02:00N 36°44' W 009°07'914.9
2017-Apr-16 01:23N 36°39' W 008°58'615.5
2017-Apr-16 01:00N 36°33' W 008°54'1815.5
2017-Apr-15 23:51N 36°17' W 008°45'515.2
2017-Apr-15 23:30N 36°12' W 008°43'4114.9
2017-Apr-15 20:46N 35°34' W 008°26'414.7
2017-Apr-15 20:30N 35°30' W 008°24'815.1
2017-Apr-15 20:00N 35°23' W 008°21'915.3
2017-Apr-15 19:26N 35°15' W 008°17'815.2
2017-Apr-15 18:54N 35°07' W 008°13'1515.2
2017-Apr-15 17:55N 34°53' W 008°07'1115.3
2017-Apr-15 17:14N 34°43' W 008°02'315.2
2017-Apr-15 17:00N 34°40' W 008°01'815.0
2017-Apr-15 16:30N 34°33' W 007°58'53 5.9
2017-Apr-15 07:32N 33°44' W 007°37'010.9
2017-Apr-15 07:29N 33°44' W 007°37'10511.9
2017-Apr-14 22:40N 32°40' W 009°16'212.0
2017-Apr-14 22:29N 32°38' W 009°18'611.8
2017-Apr-14 22:00N 32°34' W 009°22'711.5
2017-Apr-14 21:26N 32°29' W 009°27'511.6
2017-Apr-14 21:00N 32°25' W 009°31'611.5
2017-Apr-14 20:30N 32°20' W 009°35'611.5
2017-Apr-14 20:00N 32°15' W 009°39'611.4
2017-Apr-14 19:30N 32°11' W 009°43'611.5
2017-Apr-14 18:59N 32°06' W 009°47'3311.5
2017-Apr-14 16:06N 31°39' W 010°10'111.6
2017-Apr-14 15:59N 31°38' W 010°11'1011.8
2017-Apr-14 15:10N 31°30' W 010°17'17811.9
2017-Apr-14 00:10N 29°06' W 012°18'312.8
2017-Apr-13 23:58N 29°04' W 012°20'712.8
2017-Apr-13 23:27N 28°59' W 012°24'4512.4
2017-Apr-13 19:48N 28°22' W 012°55'412.3
2017-Apr-13 19:30N 28°19' W 012°57'612.2
2017-Apr-13 18:59N 28°14' W 013°01'612.2
2017-Apr-13 18:29N 28°09' W 013°05'612.3
2017-Apr-13 17:59N 28°04' W 013°10'612.1
2017-Apr-13 17:28N 27°59' W 013°14'612.2
2017-Apr-13 17:00N 27°54' W 013°17'712.2
2017-Apr-13 16:26N 27°49' W 013°22'712.2
2017-Apr-13 15:53N 27°43' W 013°26'512.4
2017-Apr-13 15:29N 27°39' W 013°30'6813.1
2017-Apr-13 10:18N 26°44' W 014°15'414.0
2017-Apr-13 10:00N 26°41' W 014°17'4513.5
2017-Apr-13 06:41N 26°05' W 014°47'  

Dump ship's entire track history